Time;durP1;ratioP1;P1;durP2;ratioP2;P2;SDS_P1;SDS_P2;PMS_P1;PMS_P2;Temp;Humidity;BMP_temperature;BMP_pressure;BME280_temperature;BME280_humidity;BME280_pressure;Samples;Min_cycle;Max_cycle;Signal;HPM_P1;HPM_P2
2022/10/23 00:01:29;;;;;;;74.97;17.35;;;10.90;99.90;;;;;;5094951;28;20044;-70
2022/10/23 00:03:57;;;;;;;158.75;13.77;;;10.90;99.90;;;;;;5095101;28;20137;-69
2022/10/23 00:06:24;;;;;;;58.97;14.32;;;10.80;99.90;;;;;;5077899;28;20055;-71
2022/10/23 00:08:50;;;;;;;32.28;15.93;;;10.70;99.90;;;;;;5095039;28;20083;-69
2022/10/23 00:11:19;;;;;;;47.67;19.25;;;10.80;99.90;;;;;;5078121;28;20048;-70
2022/10/23 00:13:45;;;;;;;44.25;18.30;;;10.90;99.90;;;;;;5094671;28;20044;-70
2022/10/23 00:16:11;;;;;;;86.63;18.20;;;10.90;99.90;;;;;;5077755;28;20503;-70
2022/10/23 00:18:38;;;;;;;108.53;14.35;;;10.90;99.90;;;;;;5077794;28;20084;-70
2022/10/23 00:21:05;;;;;;;45.13;18.65;;;10.80;99.90;;;;;;5094814;28;20043;-70
2022/10/23 00:23:30;;;;;;;40.53;19.45;;;10.80;99.90;;;;;;5094508;28;20044;-70
2022/10/23 00:25:56;;;;;;;44.92;19.90;;;10.90;99.90;;;;;;5077877;28;20370;-70
2022/10/23 00:28:22;;;;;;;49.13;18.15;;;10.90;99.90;;;;;;5077415;28;20423;-70
2022/10/23 00:30:48;;;;;;;52.72;20.08;;;10.90;99.90;;;;;;5077295;28;20051;-70
2022/10/23 00:33:13;;;;;;;50.47;21.02;;;10.90;99.90;;;;;;5061018;28;20040;-70
2022/10/23 00:35:40;;;;;;;58.30;21.33;;;10.90;99.90;;;;;;5060581;28;20131;-70
2022/10/23 00:38:07;;;;;;;59.85;22.00;;;10.90;99.90;;;;;;5077542;28;20048;-69
2022/10/23 00:40:32;;;;;;;55.15;21.38;;;11.00;99.90;;;;;;5077404;28;20548;-70
2022/10/23 00:42:58;;;;;;;48.85;20.88;;;11.00;99.90;;;;;;5094431;28;20135;-70
2022/10/23 00:45:26;;;;;;;77.60;23.65;;;11.00;99.90;;;;;;5094081;28;20044;-70
2022/10/23 00:47:54;;;;;;;299.75;23.25;;;11.00;99.90;;;;;;5094014;28;20044;-70
2022/10/23 00:50:22;;;;;;;61.33;21.90;;;11.00;99.90;;;;;;5094161;28;20128;-70
2022/10/23 00:52:51;;;;;;;188.27;25.15;;;11.30;99.90;;;;;;5077216;28;20055;-70
2022/10/23 00:55:20;;;;;;;56.92;20.23;;;11.00;99.90;;;;;;5093811;28;20401;-70
2022/10/23 00:57:48;;;;;;;54.20;21.73;;;10.90;99.90;;;;;;5076400;28;20138;-70
2022/10/23 01:00:18;;;;;;;77.07;23.70;;;10.90;99.90;;;;;;5077223;28;20048;-70
2022/10/23 01:02:44;;;;;;;51.80;23.30;;;11.00;99.90;;;;;;5076215;28;20048;-70
2022/10/23 01:05:10;;;;;;;55.70;22.42;;;11.00;99.90;;;;;;5076815;28;20066;-70
2022/10/23 01:07:43;;;;;;;59.30;24.08;;;11.10;99.90;;;;;;5094772;28;20040;-70
2022/10/23 01:10:32;;;;;;;55.28;22.75;;;11.10;99.90;;;;;;5077021;28;20156;-70
2022/10/23 01:13:09;;;;;;;58.28;23.63;;;11.10;99.90;;;;;;5067241;28;20052;-69
2022/10/23 01:15:48;;;;;;;64.30;23.88;;;11.00;99.90;;;;;;5093329;28;20036;-70
2022/10/23 01:18:35;;;;;;;56.92;23.13;;;11.10;99.90;;;;;;5093657;28;20494;-70
2022/10/23 01:21:33;;;;;;;73.57;23.80;;;11.10;99.90;;;;;;5076833;28;20105;-69
2022/10/23 01:24:08;;;;;;;52.95;23.48;;;11.10;99.90;;;;;;5076649;28;20056;-70
2022/10/23 01:26:51;;;;;;;55.22;23.10;;;11.10;99.90;;;;;;5093446;28;20106;-69
2022/10/23 01:29:25;;;;;;;72.30;24.67;;;11.10;99.90;;;;;;5093544;28;20042;-70
2022/10/23 01:32:05;;;;;;;68.35;23.55;;;11.20;99.90;;;;;;5093206;28;20048;-69
2022/10/23 01:35:20;;;;;;;56.33;22.17;;;11.10;99.90;;;;;;5093334;28;20040;-69
2022/10/23 01:38:09;;;;;;;56.78;22.50;;;11.10;99.90;;;;;;5079282;28;20052;-70
2022/10/23 01:41:04;;;;;;;57.30;23.05;;;11.10;99.90;;;;;;5091344;28;20139;-72
2022/10/23 01:43:44;;;;;;;56.70;22.00;;;11.10;99.90;;;;;;5091561;28;20055;-69
2022/10/23 01:46:14;;;;;;;53.40;21.45;;;11.00;99.90;;;;;;5093248;28;20484;-69
2022/10/23 01:48:42;;;;;;;61.40;22.60;;;11.10;99.90;;;;;;5092995;28;20040;-69
2022/10/23 01:51:13;;;;;;;51.72;22.15;;;11.10;99.90;;;;;;5092995;28;20480;-70
2022/10/23 01:53:42;;;;;;;55.33;21.92;;;11.10;99.90;;;;;;5092823;28;20043;-70
2022/10/23 01:56:11;;;;;;;56.53;22.95;;;11.10;99.90;;;;;;5092606;28;20497;-69
2022/10/23 01:58:38;;;;;;;55.90;22.58;;;11.10;99.90;;;;;;5075424;28;20064;-70
2022/10/23 02:01:06;;;;;;;53.55;23.20;;;11.00;99.90;;;;;;5075943;28;20051;-70
2022/10/23 02:03:36;;;;;;;53.65;23.50;;;11.10;99.90;;;;;;5092842;28;20404;-69
2022/10/23 02:06:02;;;;;;;70.10;24.65;;;11.10;99.90;;;;;;5075657;28;20123;-70
2022/10/23 02:08:27;;;;;;;109.32;24.80;;;11.10;99.90;;;;;;5075860;28;20123;-69
2022/10/23 02:11:07;;;;;;;45.75;19.42;;;11.10;99.90;;;;;;5092529;28;20469;-69
2022/10/23 02:13:45;;;;;;;56.72;22.17;;;11.00;99.90;;;;;;5092581;28;20044;-69
2022/10/23 02:16:13;;;;;;;50.53;21.10;;;11.00;99.90;;;;;;5075535;28;20044;-69
2022/10/23 02:18:45;;;;;;;49.80;22.10;;;11.00;99.90;;;;;;5075781;28;20152;-70
2022/10/23 02:21:22;;;;;;;44.15;21.13;;;11.10;99.90;;;;;;5092371;28;20378;-69
2022/10/23 02:24:04;;;;;;;46.65;20.95;;;11.10;99.90;;;;;;5075312;28;20384;-69
2022/10/23 02:26:38;;;;;;;47.35;20.95;;;11.10;99.90;;;;;;5092089;28;20058;-69
2022/10/23 02:29:17;;;;;;;57.80;22.00;;;11.10;99.90;;;;;;5092242;28;20044;-69
2022/10/23 02:31:43;;;;;;;47.50;21.38;;;11.10;99.90;;;;;;5092196;28;20044;-69
2022/10/23 02:34:09;;;;;;;48.75;20.80;;;11.10;99.90;;;;;;5075410;28;20507;-69
2022/10/23 02:36:34;;;;;;;53.08;22.05;;;11.00;99.90;;;;;;5091739;28;20044;-70
2022/10/23 02:39:00;;;;;;;54.28;21.50;;;11.10;99.90;;;;;;5092038;28;20052;-69
2022/10/23 02:41:43;;;;;;;47.13;21.80;;;11.10;99.90;;;;;;5092285;28;20040;-70
2022/10/23 02:44:33;;;;;;;57.67;23.15;;;11.10;99.90;;;;;;5092316;28;20109;-69
2022/10/23 02:47:29;;;;;;;43.83;19.58;;;11.10;99.90;;;;;;5092044;28;20496;-71
2022/10/23 02:50:17;;;;;;;57.75;21.00;;;11.10;99.90;;;;;;5091791;28;20047;-69
2022/10/23 02:53:16;;;;;;;65.07;19.58;;;11.00;99.90;;;;;;5075215;28;20105;-70
2022/10/23 02:56:17;;;;;;;46.88;17.75;;;11.00;99.90;;;;;;5074697;28;20044;-70
2022/10/23 02:59:03;;;;;;;504.90;27.87;;;11.00;99.90;;;;;;5033497;28;20065;-70
2022/10/23 03:01:38;;;;;;;43.40;19.05;;;10.90;99.90;;;;;;5087251;28;20565;-70
2022/10/23 03:04:05;;;;;;;46.20;19.52;;;10.90;99.90;;;;;;5091902;28;20438;-70
2022/10/23 03:06:31;;;;;;;53.65;21.38;;;11.00;99.90;;;;;;5091984;28;20051;-69
2022/10/23 03:09:01;;;;;;;49.90;21.05;;;11.10;99.90;;;;;;5074979;28;20055;-70
2022/10/23 03:11:27;;;;;;;41.78;19.13;;;11.10;99.90;;;;;;5075120;28;20044;-69
2022/10/23 03:13:53;;;;;;;30.98;16.80;;;11.00;99.90;;;;;;5091673;28;20048;-69
2022/10/23 03:16:19;;;;;;;38.80;17.85;;;11.10;99.90;;;;;;5091465;28;20048;-70
2022/10/23 03:18:44;;;;;;;38.63;19.08;;;11.10;99.90;;;;;;5092382;28;20040;-69
2022/10/23 03:21:10;;;;;;;41.42;19.38;;;11.10;99.90;;;;;;5091688;28;20047;-69
2022/10/23 03:23:36;;;;;;;43.17;20.20;;;11.20;99.90;;;;;;5090667;28;20046;-70
2022/10/23 03:26:01;;;;;;;40.90;19.60;;;11.20;99.90;;;;;;5090100;28;20040;-70
2022/10/23 03:28:27;;;;;;;93.50;16.35;;;11.20;99.90;;;;;;5074563;28;20392;-70
2022/10/23 03:30:53;;;;;;;32.50;16.05;;;11.00;99.90;;;;;;5091598;28;20048;-69
2022/10/23 03:33:18;;;;;;;39.03;17.52;;;10.90;99.90;;;;;;5091719;28;20131;-69
2022/10/23 03:35:44;;;;;;;67.55;20.02;;;10.90;99.90;;;;;;5074452;28;20484;-69
2022/10/23 03:38:10;;;;;;;32.35;16.88;;;11.10;99.90;;;;;;5091461;28;20056;-70
2022/10/23 03:40:36;;;;;;;44.75;19.42;;;11.00;99.90;;;;;;5091700;28;20369;-69
2022/10/23 03:43:01;;;;;;;35.35;17.60;;;11.10;99.90;;;;;;5091466;28;20066;-70
2022/10/23 03:45:27;;;;;;;38.40;17.90;;;11.10;99.90;;;;;;5074918;28;20396;-70
2022/10/23 03:47:53;;;;;;;43.45;20.23;;;11.20;99.90;;;;;;5091265;28;20051;-70
2022/10/23 03:50:19;;;;;;;41.17;21.25;;;11.30;99.90;;;;;;5074856;28;20370;-70
2022/10/23 03:52:44;;;;;;;45.83;22.58;;;11.30;99.90;;;;;;5091598;28;20084;-69
2022/10/23 03:55:10;;;;;;;43.97;20.55;;;11.30;99.90;;;;;;5091114;28;20044;-69
2022/10/23 03:57:37;;;;;;;45.10;21.00;;;11.40;99.90;;;;;;5091051;28;20048;-69
2022/10/23 04:00:05;;;;;;;45.33;20.60;;;11.30;99.90;;;;;;5091187;28;20513;-69
2022/10/23 04:02:31;;;;;;;51.45;22.05;;;11.30;99.90;;;;;;5092246;28;20439;-69
2022/10/23 04:04:56;;;;;;;40.55;20.77;;;11.20;99.90;;;;;;5094922;28;20039;-69
2022/10/23 04:07:22;;;;;;;41.00;19.58;;;11.20;99.90;;;;;;5094816;28;20070;-70
2022/10/23 04:09:48;;;;;;;38.25;17.90;;;11.20;99.90;;;;;;5078225;28;20044;-69
2022/10/23 04:12:13;;;;;;;34.88;17.63;;;11.20;99.90;;;;;;5077887;28;20343;-69
2022/10/23 04:14:39;;;;;;;41.47;19.90;;;11.10;99.90;;;;;;5094851;28;20055;-69
2022/10/23 04:17:05;;;;;;;44.53;18.65;;;11.10;99.90;;;;;;5077782;28;20086;-69
2022/10/23 04:19:30;;;;;;;37.63;18.05;;;11.00;99.90;;;;;;5077767;28;20143;-70
2022/10/23 04:21:56;;;;;;;37.50;18.23;;;11.00;99.90;;;;;;5077676;28;20107;-69
2022/10/23 04:24:23;;;;;;;34.45;18.70;;;11.00;99.90;;;;;;5061102;28;20393;-70
2022/10/23 04:26:50;;;;;;;38.00;18.35;;;10.90;99.90;;;;;;5077511;28;20139;-69
2022/10/23 04:29:16;;;;;;;32.95;18.00;;;11.00;99.90;;;;;;5094290;28;20130;-69
2022/10/23 04:31:42;;;;;;;38.00;19.35;;;10.90;99.90;;;;;;5077743;28;20059;-69
2022/10/23 04:34:08;;;;;;;43.40;20.92;;;11.00;99.90;;;;;;5060696;28;20048;-70
2022/10/23 04:36:33;;;;;;;39.78;20.10;;;11.00;99.90;;;;;;5077465;28;20044;-69
2022/10/23 04:38:59;;;;;;;32.17;17.33;;;11.00;99.90;;;;;;5094162;28;20048;-70
2022/10/23 04:41:25;;;;;;;39.08;19.00;;;11.00;99.90;;;;;;5094136;28;20543;-69
2022/10/23 04:43:50;;;;;;;38.38;18.88;;;10.90;99.90;;;;;;5077633;28;20044;-70
2022/10/23 04:46:16;;;;;;;39.10;19.42;;;11.00;99.90;;;;;;5094084;28;20089;-70
2022/10/23 04:48:42;;;;;;;40.55;20.48;;;11.00;99.90;;;;;;5077359;28;20136;-71
2022/10/23 04:51:08;;;;;;;47.00;21.83;;;11.00;99.90;;;;;;5076893;28;20185;-69
2022/10/23 04:53:34;;;;;;;39.92;20.85;;;11.00;99.90;;;;;;5093915;28;20373;-70
2022/10/23 04:56:00;;;;;;;42.90;20.13;;;11.00;99.90;;;;;;5093741;28;20042;-71
2022/10/23 04:58:27;;;;;;;40.67;19.83;;;11.00;99.90;;;;;;5076544;28;20135;-69
2022/10/23 05:00:54;;;;;;;51.65;21.20;;;10.90;99.90;;;;;;5077327;28;20407;-70
2022/10/23 05:03:21;;;;;;;52.65;21.13;;;10.90;99.90;;;;;;5076871;28;20121;-69
2022/10/23 05:05:47;;;;;;;45.47;20.02;;;10.90;99.90;;;;;;5093982;28;20063;-70
2022/10/23 05:08:13;;;;;;;44.00;21.23;;;10.80;99.90;;;;;;5092599;28;20056;-70
2022/10/23 05:10:40;;;;;;;42.30;20.38;;;10.90;99.90;;;;;;5059445;28;20044;-71
2022/10/23 05:13:06;;;;;;;49.85;22.23;;;11.00;99.90;;;;;;5072933;28;20497;-69
2022/10/23 05:15:32;;;;;;;54.08;23.95;;;10.90;99.90;;;;;;5040043;28;20046;-69
2022/10/23 05:18:14;;;;;;;62.50;24.85;;;10.90;99.90;;;;;;5056836;28;20461;-69
2022/10/23 05:20:41;;;;;;;53.58;23.80;;;10.90;99.90;;;;;;5073565;28;20041;-69
2022/10/23 05:23:09;;;;;;;54.10;24.98;;;11.00;99.90;;;;;;5073183;28;20055;-69
2022/10/23 05:25:35;;;;;;;56.03;24.67;;;11.00;99.90;;;;;;5056624;28;20484;-69
2022/10/23 05:28:01;;;;;;;57.05;25.70;;;11.10;99.90;;;;;;5073272;28;20048;-70
2022/10/23 05:30:27;;;;;;;60.85;26.63;;;11.10;99.90;;;;;;5056271;28;20098;-69
2022/10/23 05:32:53;;;;;;;59.90;25.10;;;11.10;99.90;;;;;;5040081;28;20511;-69
2022/10/23 05:35:22;;;;;;;54.42;24.25;;;11.10;99.90;;;;;;5068672;28;20040;-69
2022/10/23 05:37:51;;;;;;;55.35;23.85;;;11.00;99.90;;;;;;5076409;28;20139;-70
2022/10/23 05:40:17;;;;;;;49.35;23.27;;;11.00;99.90;;;;;;5093165;28;20051;-70
2022/10/23 05:42:42;;;;;;;54.17;23.50;;;11.10;99.90;;;;;;5093273;28;20044;-70
2022/10/23 05:45:09;;;;;;;56.35;23.67;;;11.00;99.90;;;;;;5075879;28;20138;-69
2022/10/23 05:47:35;;;;;;;50.17;23.13;;;11.00;99.90;;;;;;5127187;27;20074;-70
2022/10/23 05:50:00;;;;;;;48.75;23.23;;;11.00;99.90;;;;;;5093285;28;20044;-71
2022/10/23 05:52:26;;;;;;;53.33;22.88;;;11.00;99.90;;;;;;5092838;28;20094;-70
2022/10/23 05:54:51;;;;;;;55.53;22.98;;;11.00;99.90;;;;;;5075975;28;20083;-71
2022/10/23 05:57:18;;;;;;;54.50;23.33;;;11.00;99.90;;;;;;5091370;28;20112;-70
2022/10/23 05:59:44;;;;;;;52.08;22.48;;;11.00;99.90;;;;;;5090996;28;20461;-69
2022/10/23 06:02:09;;;;;;;52.10;22.38;;;11.00;99.90;;;;;;5074624;28;20056;-69
2022/10/23 06:04:35;;;;;;;52.55;22.02;;;11.00;99.90;;;;;;5074965;28;20094;-70
2022/10/23 06:07:02;;;;;;;54.85;22.98;;;11.00;99.90;;;;;;5075692;28;20469;-70
2022/10/23 06:09:29;;;;;;;54.45;23.63;;;11.00;99.90;;;;;;5091975;28;20500;-69
2022/10/23 06:11:54;;;;;;;55.05;22.58;;;11.00;99.90;;;;;;5091590;28;20044;-69
2022/10/23 06:14:20;;;;;;;47.85;21.30;;;11.00;99.90;;;;;;5042327;28;20040;-69
2022/10/23 06:16:46;;;;;;;55.17;22.25;;;11.00;99.90;;;;;;5092018;28;20116;-70
2022/10/23 06:19:12;;;;;;;46.40;21.27;;;11.00;99.90;;;;;;5090644;28;20048;-70
2022/10/23 06:21:39;;;;;;;51.85;22.40;;;11.00;99.90;;;;;;5075698;28;20450;-71
2022/10/23 06:24:06;;;;;;;53.00;22.30;;;11.00;99.90;;;;;;5092495;28;20135;-69
2022/10/23 06:26:32;;;;;;;57.88;23.17;;;10.90;99.90;;;;;;5091495;28;20051;-70
2022/10/23 06:28:58;;;;;;;49.65;21.17;;;10.90;99.90;;;;;;5092426;28;20078;-70
2022/10/23 06:31:26;;;;;;;52.70;23.55;;;10.90;99.90;;;;;;5092237;28;20408;-69
2022/10/23 06:33:56;;;;;;;46.53;21.15;;;10.90;99.90;;;;;;5092450;28;20047;-69
2022/10/23 06:36:23;;;;;;;46.38;21.05;;;10.90;99.90;;;;;;5091895;28;20044;-69
2022/10/23 06:38:49;;;;;;;54.28;24.00;;;10.90;99.90;;;;;;5092265;28;20054;-69
2022/10/23 06:41:16;;;;;;;58.33;22.20;;;11.00;99.90;;;;;;5092074;28;20040;-69
2022/10/23 06:43:42;;;;;;;51.58;23.13;;;11.00;99.90;;;;;;5092298;28;20043;-69
2022/10/23 06:46:09;;;;;;;54.10;22.63;;;11.10;99.90;;;;;;5058673;28;20044;-69
2022/10/23 06:48:35;;;;;;;59.28;23.83;;;11.10;99.90;;;;;;5058616;28;20062;-69
2022/10/23 06:51:06;;;;;;;55.72;23.33;;;11.20;99.90;;;;;;5058671;28;20048;-69
2022/10/23 06:53:32;;;;;;;61.13;22.90;;;11.30;99.90;;;;;;5091971;28;20047;-70
2022/10/23 06:55:59;;;;;;;57.00;21.98;;;11.40;99.90;;;;;;5091914;28;20400;-69
2022/10/23 06:58:25;;;;;;;51.42;21.38;;;11.40;99.90;;;;;;5073965;28;20048;-69
2022/10/23 07:00:51;;;;;;;53.50;22.20;;;11.50;99.90;;;;;;5092028;28;20052;-69
2022/10/23 07:03:17;;;;;;;50.85;21.17;;;11.50;99.90;;;;;;5074606;28;20048;-70
2022/10/23 07:05:46;;;;;;;51.33;21.42;;;11.50;99.90;;;;;;5074870;28;20134;-69
2022/10/23 07:08:13;;;;;;;44.72;19.85;;;11.50;99.90;;;;;;5075260;28;20097;-69
2022/10/23 07:10:42;;;;;;;48.45;20.73;;;11.60;99.90;;;;;;5097380;28;20388;-69
2022/10/23 07:13:09;;;;;;;48.95;20.77;;;11.60;99.90;;;;;;5074715;28;20079;-70
2022/10/23 07:15:35;;;;;;;50.10;20.83;;;11.80;99.90;;;;;;4729245;28;9999641;-70
2022/10/23 07:18:01;;;;;;;47.60;19.67;;;11.70;99.90;;;;;;5066607;28;20044;-70
2022/10/23 07:20:27;;;;;;;42.80;20.15;;;11.80;99.90;;;;;;5084162;28;20059;-69
2022/10/23 07:22:54;;;;;;;40.00;18.45;;;11.80;99.90;;;;;;5069218;28;20106;-70
2022/10/23 07:25:20;;;;;;;40.55;18.90;;;11.80;99.90;;;;;;5077085;28;20052;-70
2022/10/23 07:27:47;;;;;;;43.92;19.13;;;12.20;99.90;;;;;;5088682;28;20507;-70
2022/10/23 07:30:13;;;;;;;37.05;18.10;;;12.00;99.90;;;;;;5055846;28;20097;-70
2022/10/23 07:32:39;;;;;;;41.78;18.27;;;12.00;99.90;;;;;;5065173;28;20054;-71
2022/10/23 07:35:06;;;;;;;36.25;18.15;;;12.10;99.90;;;;;;5063589;28;20075;-70
2022/10/23 07:37:31;;;;;;;39.03;19.02;;;12.10;99.90;;;;;;5093531;28;20055;-70
2022/10/23 07:39:57;;;;;;;36.55;17.33;;;12.20;99.90;;;;;;5094852;28;20036;-70
2022/10/23 07:42:23;;;;;;;37.85;17.70;;;12.20;99.90;;;;;;5061302;28;20412;-68
2022/10/23 07:44:48;;;;;;;40.10;16.52;;;12.30;99.90;;;;;;5078654;28;20468;-70
2022/10/23 07:47:14;;;;;;;29.42;15.50;;;12.30;99.90;;;;;;5078467;28;20097;-69
2022/10/23 07:49:40;;;;;;;37.13;18.25;;;12.40;99.90;;;;;;5096611;28;20051;-70
2022/10/23 07:52:06;;;;;;;34.38;16.38;;;12.40;99.90;;;;;;5095107;28;20040;-71
2022/10/23 07:54:32;;;;;;;31.58;15.98;;;12.40;99.90;;;;;;5078297;28;20131;-70
2022/10/23 07:56:58;;;;;;;27.85;15.35;;;12.50;99.90;;;;;;5078193;28;20056;-69
2022/10/23 07:59:25;;;;;;;36.15;16.02;;;12.60;99.90;;;;;;5078262;28;20461;-71
2022/10/23 08:01:51;;;;;;;30.65;15.45;;;12.50;99.90;;;;;;5095210;28;20043;-70
2022/10/23 08:04:18;;;;;;;31.67;15.32;;;12.60;99.90;;;;;;5078311;28;20074;-70
2022/10/23 08:06:44;;;;;;;28.17;15.60;;;12.60;99.90;;;;;;5077992;28;20040;-69
2022/10/23 08:09:09;;;;;;;30.95;15.02;;;12.70;99.90;;;;;;5078132;28;20143;-70
2022/10/23 08:11:35;;;;;;;30.40;16.25;;;12.70;99.90;;;;;;5094818;28;20044;-69
2022/10/23 08:14:03;;;;;;;32.40;16.30;;;12.80;99.90;;;;;;5078134;28;20056;-70
2022/10/23 08:16:30;;;;;;;31.48;15.38;;;12.80;99.90;;;;;;5077474;28;20043;-69
2022/10/23 08:18:56;;;;;;;29.10;16.13;;;12.80;99.90;;;;;;5077985;28;20047;-70
2022/10/23 08:21:22;;;;;;;30.10;16.08;;;12.80;99.90;;;;;;5077936;28;20063;-70
2022/10/23 08:23:48;;;;;;;31.88;16.27;;;12.90;99.90;;;;;;5094649;28;20043;-69
2022/10/23 08:26:14;;;;;;;26.85;15.13;;;13.00;99.90;;;;;;5077886;28;20044;-69
2022/10/23 08:28:40;;;;;;;23.60;14.23;;;13.00;99.90;;;;;;5094531;28;20056;-70
2022/10/23 08:31:08;;;;;;;23.17;13.75;;;13.10;99.90;;;;;;5077856;28;20438;-69
2022/10/23 08:33:34;;;;;;;26.17;14.05;;;13.20;99.90;;;;;;5094379;28;20139;-70
2022/10/23 08:36:00;;;;;;;24.38;12.60;;;13.20;99.90;;;;;;5094267;28;20130;-69
2022/10/23 08:38:26;;;;;;;22.33;12.25;;;13.30;99.90;;;;;;5077669;28;20089;-70
2022/10/23 08:40:52;;;;;;;22.08;12.18;;;13.40;99.90;;;;;;5060735;28;20399;-70
2022/10/23 08:43:28;;;;;;;21.90;11.85;;;13.40;99.90;;;;;;5061162;28;20106;-69
2022/10/23 08:46:16;;;;;;;21.50;11.98;;;13.50;99.90;;;;;;5094280;28;20135;-69
2022/10/23 08:48:52;;;;;;;19.38;10.95;;;13.60;99.90;;;;;;5076869;28;20055;-70
2022/10/23 08:51:33;;;;;;;24.92;11.50;;;13.70;99.90;;;;;;5094326;28;20051;-69
2022/10/23 08:54:17;;;;;;;22.57;11.80;;;13.70;99.90;;;;;;5094287;28;20036;-70
2022/10/23 08:57:09;;;;;;;22.17;11.80;;;13.80;99.90;;;;;;5076609;28;20105;-70
2022/10/23 08:59:42;;;;;;;18.55;10.82;;;13.90;99.90;;;;;;5077009;28;20478;-70
2022/10/23 09:02:23;;;;;;;23.17;11.00;;;14.00;99.90;;;;;;5093728;28;20040;-70
2022/10/23 09:04:52;;;;;;;21.45;11.02;;;14.10;99.90;;;;;;5093889;28;20476;-69
2022/10/23 09:07:59;;;;;;;18.67;10.98;;;14.20;99.90;;;;;;5077131;28;20052;-70
2022/10/23 09:10:52;;;;;;;21.50;10.57;;;14.30;99.90;;;;;;5063825;28;20515;-69
2022/10/23 09:13:55;;;;;;;18.10;11.00;;;14.40;99.90;;;;;;5093961;28;20052;-69
2022/10/23 09:16:59;;;;;;;23.58;11.23;;;14.50;99.90;;;;;;5076493;28;20040;-70
2022/10/23 09:19:26;;;;;;;17.75;10.10;;;14.60;99.90;;;;;;4720733;28;10000617;-71
2022/10/23 09:21:54;;;;;;;19.63;11.38;;;14.70;99.90;;;;;;5087088;28;20044;-70
2022/10/23 09:24:23;;;;;;;19.58;9.75;;;14.60;99.90;;;;;;5060097;28;20051;-70
2022/10/23 09:26:50;;;;;;;21.67;10.98;;;14.60;99.90;;;;;;5068376;28;20048;-70
2022/10/23 09:29:28;;;;;;;17.17;9.35;;;14.80;99.90;;;;;;5081673;28;20484;-70
2022/10/23 09:31:59;;;;;;;17.73;11.00;;;14.80;99.90;;;;;;5086689;28;20131;-70
2022/10/23 09:34:28;;;;;;;21.80;10.02;;;15.00;99.90;;;;;;5086734;28;20075;-70
2022/10/23 09:36:59;;;;;;;17.88;10.23;;;15.10;99.90;;;;;;5097968;28;20120;-70
2022/10/23 09:39:29;;;;;;;20.52;10.75;;;15.30;99.90;;;;;;5087129;28;20485;-72
2022/10/23 09:41:55;;;;;;;19.05;10.85;;;15.40;99.90;;;;;;5086683;28;20049;-69
2022/10/23 09:44:29;;;;;;;16.73;10.20;;;15.50;99.90;;;;;;5053920;28;20059;-70
2022/10/23 09:47:07;;;;;;;17.00;10.27;;;15.60;99.90;;;;;;5070189;28;20040;-71
2022/10/23 09:49:33;;;;;;;15.60;10.07;;;15.70;99.90;;;;;;5053992;28;20477;-70
2022/10/23 09:52:23;;;;;;;13.13;9.43;;;15.70;99.90;;;;;;5070216;28;20044;-70
2022/10/23 09:55:00;;;;;;;17.63;10.05;;;15.80;99.90;;;;;;5097276;28;20048;-70
2022/10/23 09:57:43;;;;;;;14.43;8.90;;;15.90;99.90;;;;;;5059684;28;20589;-70
2022/10/23 10:00:24;;;;;;;23.13;10.57;;;16.00;99.90;;;;;;5076997;28;20509;-69
2022/10/23 10:02:59;;;;;;;17.20;9.25;;;16.10;99.90;;;;;;5086926;28;20044;-70
2022/10/23 10:05:29;;;;;;;12.88;8.85;;;16.10;99.90;;;;;;5069714;28;20450;-71
2022/10/23 10:08:02;;;;;;;14.90;9.25;;;16.10;99.90;;;;;;5054706;28;20101;-70
2022/10/23 10:10:36;;;;;;;17.08;9.00;;;16.20;99.90;;;;;;5087041;28;20068;-70
2022/10/23 10:13:31;;;;;;;14.18;8.00;;;16.10;99.90;;;;;;5069324;28;20052;-71
2022/10/23 10:16:30;;;;;;;16.42;8.60;;;16.20;99.90;;;;;;5041247;28;20055;-70
2022/10/23 10:19:18;;;;;;;13.73;9.23;;;16.20;99.90;;;;;;5073678;28;20124;-70
2022/10/23 10:22:13;;;;;;;14.23;8.20;;;16.10;99.90;;;;;;5086484;28;20507;-69
2022/10/23 10:24:48;;;;;;;13.65;8.57;;;16.20;99.90;;;;;;5061096;28;20076;-72
2022/10/23 10:27:49;;;;;;;16.30;8.75;;;16.20;99.90;;;;;;5074550;28;20074;-70
2022/10/23 10:30:22;;;;;;;13.93;8.83;;;16.30;99.90;;;;;;5069416;28;20060;-70
2022/10/23 10:32:58;;;;;;;14.55;8.73;;;16.40;99.90;;;;;;5041746;28;20068;-70
2022/10/23 10:35:51;;;;;;;10.88;8.63;;;16.60;99.90;;;;;;5058788;28;20178;-70
2022/10/23 10:38:43;;;;;;;14.10;8.73;;;16.60;99.90;;;;;;5054865;28;20048;-71
2022/10/23 10:41:28;;;;;;;;;;;16.80;99.90;;;;;;5074856;28;20040;-70
2022/10/23 10:44:03;;;;;;;14.43;8.25;;;16.80;99.90;;;;;;5089113;28;19930;-70
2022/10/23 10:46:46;;;;;;;17.35;8.45;;;17.10;99.90;;;;;;5097401;28;20044;-70
2022/10/23 10:49:27;;;;;;;15.23;8.20;;;17.20;99.90;;;;;;5054648;28;20048;-71
2022/10/23 10:52:08;;;;;;;12.73;7.75;;;17.40;99.90;;;;;;5090693;28;20048;-71
2022/10/23 10:54:41;;;;;;;16.98;7.55;;;17.40;99.90;;;;;;5061241;28;20052;-70
2022/10/23 10:57:41;;;;;;;15.25;7.45;;;17.40;99.90;;;;;;5057845;28;20049;-70
2022/10/23 11:00:19;;;;;;;10.65;7.22;;;17.20;99.90;;;;;;5058428;28;20044;-71
2022/10/23 11:02:46;;;;;;;11.82;7.40;;;17.20;99.90;;;;;;5056057;28;20052;-71
2022/10/23 11:05:36;;;;;;;12.05;7.30;;;17.30;99.90;;;;;;5074878;28;20058;-71
2022/10/23 11:08:12;;;;;;;11.55;7.28;;;17.20;99.90;;;;;;5079735;28;20079;-69
2022/10/23 11:10:43;;;;;;;12.18;7.72;;;17.20;99.90;;;;;;5082379;28;20123;-71
2022/10/23 11:13:24;;;;;;;12.40;7.60;;;17.20;99.90;;;;;;5083816;28;20047;-70
2022/10/23 11:15:51;;;;;;;17.05;8.07;;;17.20;99.90;;;;;;5070318;28;20447;-70
2022/10/23 11:18:26;;;;;;;12.07;7.70;;;17.20;99.90;;;;;;5081298;28;20385;-70
2022/10/23 11:21:16;;;;;;;12.35;7.30;;;17.30;99.90;;;;;;5089277;28;20093;-70
2022/10/23 11:23:57;;;;;;;13.05;7.72;;;17.20;99.90;;;;;;5092100;28;20089;-70
2022/10/23 11:26:28;;;;;;;12.95;7.80;;;17.30;99.90;;;;;;5086565;28;20049;-69
2022/10/23 11:28:59;;;;;;;;;;;17.40;99.90;;;;;;5090135;28;20054;-71
2022/10/23 11:31:53;;;;;;;10.85;7.28;;;17.20;99.90;;;;;;5091508;28;19986;-70
2022/10/23 11:34:51;;;;;;;11.38;7.30;;;17.30;99.90;;;;;;5073224;28;20088;-69
2022/10/23 11:37:19;;;;;;;12.10;7.40;;;17.20;99.90;;;;;;5074794;28;20059;-70
2022/10/23 11:40:03;;;;;;;14.20;6.85;;;17.20;99.90;;;;;;5065730;28;20396;-70
2022/10/23 11:42:40;;;;;;;13.50;6.97;;;17.20;99.90;;;;;;5078858;28;20075;-71
2022/10/23 11:45:31;;;;;;;10.77;6.95;;;17.10;99.90;;;;;;5076899;28;20499;-70
2022/10/23 11:48:19;;;;;;;10.77;6.75;;;17.10;99.90;;;;;;5081895;28;20041;-70
2022/10/23 11:50:45;;;;;;;10.60;6.30;;;17.00;99.90;;;;;;5075101;28;20079;-70
2022/10/23 11:53:32;;;;;;;10.63;6.90;;;17.00;99.90;;;;;;5096746;28;20044;-69
2022/10/23 11:56:18;;;;;;;12.35;7.22;;;17.00;99.90;;;;;;5089134;28;20064;-69
2022/10/23 11:58:44;;;;;;;15.95;8.25;;;17.00;99.90;;;;;;5089098;28;20110;-70
2022/10/23 12:01:44;;;;;;;20.15;9.63;;;17.00;99.90;;;;;;5072346;28;20052;-69
2022/10/23 12:04:12;;;;;;;11.07;6.85;;;17.00;99.90;;;;;;5092846;28;20056;-70
2022/10/23 12:06:41;;;;;;;10.60;7.18;;;17.00;99.90;;;;;;5073979;28;20408;-69
2022/10/23 12:09:20;;;;;;;12.60;7.70;;;17.00;99.90;;;;;;5093461;28;20040;-70
2022/10/23 12:11:50;;;;;;;12.20;7.38;;;16.90;99.90;;;;;;5090022;28;20178;-69
2022/10/23 12:14:31;;;;;;;10.10;6.82;;;17.00;99.90;;;;;;5096171;28;20052;-70
2022/10/23 12:16:57;;;;;;;13.55;7.20;;;16.90;99.90;;;;;;5073290;28;20048;-72
2022/10/23 12:19:29;;;;;;;10.30;6.82;;;17.00;99.90;;;;;;5074230;28;20123;-70
2022/10/23 12:21:59;;;;;;;12.13;7.10;;;16.90;99.90;;;;;;5069119;28;20055;-70
2022/10/23 12:24:55;;;;;;;9.40;6.93;;;17.00;99.90;;;;;;5078182;28;20645;-70
2022/10/23 12:27:47;;;;;;;11.02;6.53;;;17.00;99.90;;;;;;5114230;27;20048;-70
2022/10/23 12:30:23;;;;;;;16.10;6.80;;;17.00;99.90;;;;;;5121900;27;20484;-69
2022/10/23 12:33:13;;;;;;;10.48;6.97;;;17.00;99.90;;;;;;5073336;28;20488;-70
2022/10/23 12:35:48;;;;;;;10.65;7.13;;;17.10;99.90;;;;;;5091682;28;20602;-70
2022/10/23 12:38:26;;;;;;;14.93;6.70;;;17.10;99.90;;;;;;5090598;28;20078;-70
2022/10/23 12:41:21;;;;;;;10.35;6.43;;;17.10;99.90;;;;;;5114679;27;20105;-70
2022/10/23 12:43:58;;;;;;;9.80;6.25;;;17.10;99.90;;;;;;5091645;28;20048;-69
2022/10/23 12:46:38;;;;;;;10.88;6.15;;;17.20;99.90;;;;;;5071129;28;20840;-71
2022/10/23 12:49:17;;;;;;;8.07;6.20;;;17.30;99.90;;;;;;5055044;28;20079;-70
2022/10/23 12:51:43;;;;;;;12.15;6.38;;;17.30;99.90;;;;;;5071312;28;20052;-70
2022/10/23 12:54:15;;;;;;;11.02;6.20;;;17.40;99.90;;;;;;5104915;28;20067;-70
2022/10/23 12:56:43;;;;;;;10.27;6.10;;;17.40;99.90;;;;;;5071168;28;20048;-69